sensor_id;sensor_type;location;lat;lon;timestamp;P1;durP1;ratioP1;P2;durP2;ratioP2
76459;SDS011;65299;46.084;18.762;2023-07-13T00:01:00;9.85;;;3.90;;
76459;SDS011;65299;46.084;18.762;2023-07-13T00:04:00;8.87;;;3.90;;
76459;SDS011;65299;46.084;18.762;2023-07-13T00:07:01;10.33;;;3.90;;
76459;SDS011;65299;46.084;18.762;2023-07-13T00:10:03;11.73;;;3.75;;
76459;SDS011;65299;46.084;18.762;2023-07-13T00:13:04;12.30;;;4.00;;
76459;SDS011;65299;46.084;18.762;2023-07-13T00:16:04;12.60;;;4.17;;
76459;SDS011;65299;46.084;18.762;2023-07-13T00:19:05;12.65;;;3.90;;
76459;SDS011;65299;46.084;18.762;2023-07-13T00:22:06;12.80;;;4.28;;
76459;SDS011;65299;46.084;18.762;2023-07-13T00:25:07;8.73;;;3.70;;
76459;SDS011;65299;46.084;18.762;2023-07-13T00:28:12;8.18;;;3.47;;
76459;SDS011;65299;46.084;18.762;2023-07-13T00:31:12;9.77;;;3.80;;
76459;SDS011;65299;46.084;18.762;2023-07-13T00:34:14;10.20;;;3.67;;
76459;SDS011;65299;46.084;18.762;2023-07-13T00:37:14;15.50;;;3.50;;
76459;SDS011;65299;46.084;18.762;2023-07-13T00:40:15;8.83;;;3.80;;
76459;SDS011;65299;46.084;18.762;2023-07-13T00:43:17;10.32;;;3.65;;
76459;SDS011;65299;46.084;18.762;2023-07-13T00:46:22;10.43;;;3.58;;
76459;SDS011;65299;46.084;18.762;2023-07-13T00:49:29;12.98;;;3.67;;
76459;SDS011;65299;46.084;18.762;2023-07-13T00:52:32;12.60;;;3.97;;
76459;SDS011;65299;46.084;18.762;2023-07-13T00:55:35;12.13;;;3.63;;
76459;SDS011;65299;46.084;18.762;2023-07-13T00:58:35;9.38;;;3.75;;
76459;SDS011;65299;46.084;18.762;2023-07-13T01:01:36;9.13;;;3.40;;
76459;SDS011;65299;46.084;18.762;2023-07-13T01:04:37;7.60;;;4.38;;
76459;SDS011;65299;46.084;18.762;2023-07-13T01:07:38;12.50;;;3.50;;
76459;SDS011;65299;46.084;18.762;2023-07-13T01:10:40;12.17;;;3.87;;
76459;SDS011;65299;46.084;18.762;2023-07-13T01:13:40;11.93;;;4.40;;
76459;SDS011;65299;46.084;18.762;2023-07-13T01:16:41;10.53;;;4.37;;
76459;SDS011;65299;46.084;18.762;2023-07-13T01:19:43;9.35;;;4.13;;
76459;SDS011;65299;46.084;18.762;2023-07-13T01:22:45;10.70;;;4.53;;
76459;SDS011;65299;46.084;18.762;2023-07-13T01:25:46;11.20;;;3.95;;
76459;SDS011;65299;46.084;18.762;2023-07-13T01:28:46;12.43;;;4.17;;
76459;SDS011;65299;46.084;18.762;2023-07-13T01:31:47;10.15;;;3.60;;
76459;SDS011;65299;46.084;18.762;2023-07-13T01:34:47;10.90;;;3.50;;
76459;SDS011;65299;46.084;18.762;2023-07-13T01:37:48;12.37;;;4.13;;
76459;SDS011;65299;46.084;18.762;2023-07-13T01:40:49;11.23;;;3.75;;
76459;SDS011;65299;46.084;18.762;2023-07-13T01:43:51;11.80;;;3.95;;
76459;SDS011;65299;46.084;18.762;2023-07-13T01:46:51;11.43;;;4.50;;
76459;SDS011;65299;46.084;18.762;2023-07-13T01:49:52;8.50;;;3.77;;
76459;SDS011;65299;46.084;18.762;2023-07-13T01:52:52;9.37;;;3.90;;
76459;SDS011;65299;46.084;18.762;2023-07-13T01:55:53;8.38;;;3.78;;
76459;SDS011;65299;46.084;18.762;2023-07-13T01:58:53;13.80;;;4.77;;
76459;SDS011;65299;46.084;18.762;2023-07-13T02:01:54;10.57;;;4.53;;
76459;SDS011;65299;46.084;18.762;2023-07-13T02:04:54;13.13;;;5.05;;
76459;SDS011;65299;46.084;18.762;2023-07-13T02:07:55;8.20;;;4.30;;
76459;SDS011;65299;46.084;18.762;2023-07-13T02:10:55;9.70;;;4.27;;
76459;SDS011;65299;46.084;18.762;2023-07-13T02:13:55;6.80;;;4.00;;
76459;SDS011;65299;46.084;18.762;2023-07-13T02:16:56;8.87;;;4.13;;
76459;SDS011;65299;46.084;18.762;2023-07-13T02:19:56;15.77;;;4.32;;
76459;SDS011;65299;46.084;18.762;2023-07-13T02:22:57;12.70;;;4.23;;
76459;SDS011;65299;46.084;18.762;2023-07-13T02:25:57;6.60;;;3.87;;
76459;SDS011;65299;46.084;18.762;2023-07-13T02:28:59;10.85;;;4.00;;
76459;SDS011;65299;46.084;18.762;2023-07-13T02:31:59;9.53;;;4.10;;
76459;SDS011;65299;46.084;18.762;2023-07-13T02:35:00;8.40;;;4.13;;
76459;SDS011;65299;46.084;18.762;2023-07-13T02:38:00;12.02;;;4.57;;
76459;SDS011;65299;46.084;18.762;2023-07-13T02:41:01;14.50;;;4.20;;
76459;SDS011;65299;46.084;18.762;2023-07-13T02:44:02;10.60;;;4.03;;
76459;SDS011;65299;46.084;18.762;2023-07-13T02:47:03;11.30;;;4.68;;
76459;SDS011;65299;46.084;18.762;2023-07-13T02:50:04;11.57;;;4.33;;
76459;SDS011;65299;46.084;18.762;2023-07-13T02:53:05;13.40;;;4.80;;
76459;SDS011;65299;46.084;18.762;2023-07-13T02:56:05;14.20;;;4.33;;
76459;SDS011;65299;46.084;18.762;2023-07-13T02:59:07;9.13;;;3.90;;
76459;SDS011;65299;46.084;18.762;2023-07-13T03:02:07;9.20;;;4.90;;
76459;SDS011;65299;46.084;18.762;2023-07-13T03:05:08;15.00;;;5.07;;
76459;SDS011;65299;46.084;18.762;2023-07-13T03:08:12;11.07;;;5.10;;
76459;SDS011;65299;46.084;18.762;2023-07-13T03:11:14;11.07;;;4.53;;
76459;SDS011;65299;46.084;18.762;2023-07-13T03:14:17;16.90;;;5.73;;
76459;SDS011;65299;46.084;18.762;2023-07-13T03:17:17;14.18;;;4.93;;
76459;SDS011;65299;46.084;18.762;2023-07-13T03:20:18;14.93;;;5.20;;
76459;SDS011;65299;46.084;18.762;2023-07-13T03:23:20;11.13;;;5.20;;
76459;SDS011;65299;46.084;18.762;2023-07-13T03:26:21;9.37;;;5.10;;
76459;SDS011;65299;46.084;18.762;2023-07-13T03:29:22;12.60;;;5.53;;
76459;SDS011;65299;46.084;18.762;2023-07-13T03:32:22;14.83;;;6.33;;
76459;SDS011;65299;46.084;18.762;2023-07-13T03:35:22;12.10;;;5.20;;
76459;SDS011;65299;46.084;18.762;2023-07-13T03:38:23;14.30;;;5.70;;
76459;SDS011;65299;46.084;18.762;2023-07-13T03:41:24;10.73;;;5.57;;
76459;SDS011;65299;46.084;18.762;2023-07-13T03:44:25;20.40;;;5.72;;
76459;SDS011;65299;46.084;18.762;2023-07-13T03:47:25;10.30;;;6.63;;
76459;SDS011;65299;46.084;18.762;2023-07-13T03:50:26;15.70;;;5.35;;
76459;SDS011;65299;46.084;18.762;2023-07-13T03:53:26;10.47;;;5.07;;
76459;SDS011;65299;46.084;18.762;2023-07-13T03:56:26;13.87;;;5.27;;
76459;SDS011;65299;46.084;18.762;2023-07-13T03:59:27;12.93;;;5.83;;
76459;SDS011;65299;46.084;18.762;2023-07-13T04:02:27;20.27;;;5.63;;
76459;SDS011;65299;46.084;18.762;2023-07-13T04:05:28;13.10;;;4.78;;
76459;SDS011;65299;46.084;18.762;2023-07-13T04:08:28;17.43;;;5.30;;
76459;SDS011;65299;46.084;18.762;2023-07-13T04:11:30;9.18;;;4.63;;
76459;SDS011;65299;46.084;18.762;2023-07-13T04:14:32;15.17;;;5.20;;
76459;SDS011;65299;46.084;18.762;2023-07-13T04:17:33;14.85;;;5.15;;
76459;SDS011;65299;46.084;18.762;2023-07-13T04:20:33;13.50;;;5.17;;
76459;SDS011;65299;46.084;18.762;2023-07-13T04:23:33;21.23;;;5.83;;
76459;SDS011;65299;46.084;18.762;2023-07-13T04:26:34;20.25;;;4.50;;
76459;SDS011;65299;46.084;18.762;2023-07-13T04:29:36;22.13;;;2.80;;
76459;SDS011;65299;46.084;18.762;2023-07-13T04:32:36;4.10;;;1.10;;
76459;SDS011;65299;46.084;18.762;2023-07-13T04:35:37;5.37;;;1.20;;
76459;SDS011;65299;46.084;18.762;2023-07-13T04:38:37;4.23;;;1.50;;
76459;SDS011;65299;46.084;18.762;2023-07-13T04:41:37;5.70;;;1.20;;
76459;SDS011;65299;46.084;18.762;2023-07-13T04:44:38;4.88;;;1.40;;
76459;SDS011;65299;46.084;18.762;2023-07-13T04:47:38;4.60;;;1.37;;
76459;SDS011;65299;46.084;18.762;2023-07-13T04:50:39;4.77;;;1.10;;
76459;SDS011;65299;46.084;18.762;2023-07-13T04:53:39;4.10;;;0.85;;
76459;SDS011;65299;46.084;18.762;2023-07-13T04:56:40;6.13;;;1.50;;
76459;SDS011;65299;46.084;18.762;2023-07-13T04:59:40;4.60;;;1.10;;
76459;SDS011;65299;46.084;18.762;2023-07-13T05:02:43;3.37;;;1.30;;
76459;SDS011;65299;46.084;18.762;2023-07-13T05:05:54;4.82;;;1.30;;
76459;SDS011;65299;46.084;18.762;2023-07-13T05:08:58;3.88;;;1.60;;
76459;SDS011;65299;46.084;18.762;2023-07-13T05:11:58;4.33;;;1.37;;
76459;SDS011;65299;46.084;18.762;2023-07-13T05:14:59;3.60;;;1.20;;
76459;SDS011;65299;46.084;18.762;2023-07-13T05:18:00;6.20;;;0.90;;
76459;SDS011;65299;46.084;18.762;2023-07-13T05:21:05;2.43;;;0.70;;
76459;SDS011;65299;46.084;18.762;2023-07-13T05:24:07;3.35;;;1.00;;
76459;SDS011;65299;46.084;18.762;2023-07-13T05:27:07;2.30;;;0.70;;
76459;SDS011;65299;46.084;18.762;2023-07-13T05:30:08;5.50;;;0.88;;
76459;SDS011;65299;46.084;18.762;2023-07-13T05:33:11;4.20;;;0.80;;
76459;SDS011;65299;46.084;18.762;2023-07-13T05:36:11;4.13;;;0.77;;
76459;SDS011;65299;46.084;18.762;2023-07-13T05:39:12;3.10;;;1.00;;
76459;SDS011;65299;46.084;18.762;2023-07-13T05:42:12;5.17;;;1.07;;
76459;SDS011;65299;46.084;18.762;2023-07-13T05:45:13;2.23;;;0.93;;
76459;SDS011;65299;46.084;18.762;2023-07-13T05:48:13;3.33;;;1.10;;
76459;SDS011;65299;46.084;18.762;2023-07-13T05:51:14;2.17;;;1.20;;
76459;SDS011;65299;46.084;18.762;2023-07-13T05:54:14;3.33;;;0.97;;
76459;SDS011;65299;46.084;18.762;2023-07-13T05:57:15;2.67;;;1.00;;
76459;SDS011;65299;46.084;18.762;2023-07-13T06:00:15;3.53;;;0.83;;
76459;SDS011;65299;46.084;18.762;2023-07-13T06:03:16;6.50;;;0.98;;
76459;SDS011;65299;46.084;18.762;2023-07-13T06:06:16;4.57;;;1.20;;
76459;SDS011;65299;46.084;18.762;2023-07-13T06:09:17;4.97;;;0.95;;
76459;SDS011;65299;46.084;18.762;2023-07-13T06:12:18;2.93;;;1.00;;
76459;SDS011;65299;46.084;18.762;2023-07-13T06:15:18;2.80;;;1.20;;
76459;SDS011;65299;46.084;18.762;2023-07-13T06:18:19;3.22;;;1.10;;
76459;SDS011;65299;46.084;18.762;2023-07-13T06:21:20;3.80;;;1.07;;
76459;SDS011;65299;46.084;18.762;2023-07-13T06:24:22;2.20;;;1.23;;
76459;SDS011;65299;46.084;18.762;2023-07-13T06:27:22;7.67;;;1.30;;
76459;SDS011;65299;46.084;18.762;2023-07-13T06:30:23;6.50;;;1.30;;
76459;SDS011;65299;46.084;18.762;2023-07-13T06:33:23;3.53;;;1.03;;
76459;SDS011;65299;46.084;18.762;2023-07-13T06:36:24;4.10;;;1.08;;
76459;SDS011;65299;46.084;18.762;2023-07-13T06:39:25;4.63;;;1.20;;
76459;SDS011;65299;46.084;18.762;2023-07-13T06:42:25;3.65;;;1.10;;
76459;SDS011;65299;46.084;18.762;2023-07-13T06:45:25;5.53;;;1.30;;
76459;SDS011;65299;46.084;18.762;2023-07-13T06:48:26;1.67;;;1.00;;
76459;SDS011;65299;46.084;18.762;2023-07-13T06:51:26;3.60;;;1.10;;
76459;SDS011;65299;46.084;18.762;2023-07-13T06:54:27;6.70;;;1.42;;
76459;SDS011;65299;46.084;18.762;2023-07-13T06:57:27;2.50;;;1.17;;
76459;SDS011;65299;46.084;18.762;2023-07-13T07:00:28;3.30;;;1.40;;
76459;SDS011;65299;46.084;18.762;2023-07-13T07:03:28;2.25;;;0.98;;
76459;SDS011;65299;46.084;18.762;2023-07-13T07:06:29;2.50;;;0.80;;
76459;SDS011;65299;46.084;18.762;2023-07-13T07:09:29;1.90;;;0.93;;
76459;SDS011;65299;46.084;18.762;2023-07-13T07:12:31;2.88;;;1.20;;
76459;SDS011;65299;46.084;18.762;2023-07-13T07:15:31;2.20;;;1.10;;
76459;SDS011;65299;46.084;18.762;2023-07-13T07:18:32;1.42;;;0.60;;
76459;SDS011;65299;46.084;18.762;2023-07-13T07:21:32;3.67;;;1.00;;
76459;SDS011;65299;46.084;18.762;2023-07-13T07:24:33;1.70;;;1.00;;
76459;SDS011;65299;46.084;18.762;2023-07-13T07:27:33;3.43;;;0.60;;
76459;SDS011;65299;46.084;18.762;2023-07-13T07:30:34;2.60;;;1.15;;
76459;SDS011;65299;46.084;18.762;2023-07-13T07:33:35;2.03;;;1.02;;
76459;SDS011;65299;46.084;18.762;2023-07-13T07:36:35;3.37;;;1.00;;
76459;SDS011;65299;46.084;18.762;2023-07-13T07:39:36;2.17;;;1.10;;
76459;SDS011;65299;46.084;18.762;2023-07-13T07:42:36;1.80;;;0.97;;
76459;SDS011;65299;46.084;18.762;2023-07-13T07:45:37;2.57;;;1.17;;
76459;SDS011;65299;46.084;18.762;2023-07-13T07:48:38;4.13;;;1.08;;
76459;SDS011;65299;46.084;18.762;2023-07-13T07:51:39;3.67;;;1.10;;
76459;SDS011;65299;46.084;18.762;2023-07-13T07:54:39;4.47;;;1.15;;
76459;SDS011;65299;46.084;18.762;2023-07-13T07:57:39;2.63;;;0.80;;
76459;SDS011;65299;46.084;18.762;2023-07-13T08:00:40;1.33;;;0.90;;
76459;SDS011;65299;46.084;18.762;2023-07-13T08:03:40;2.17;;;1.00;;
76459;SDS011;65299;46.084;18.762;2023-07-13T08:06:41;1.88;;;0.80;;
76459;SDS011;65299;46.084;18.762;2023-07-13T08:09:41;1.07;;;0.90;;
76459;SDS011;65299;46.084;18.762;2023-07-13T08:12:41;3.87;;;0.80;;
76459;SDS011;65299;46.084;18.762;2023-07-13T08:15:42;2.13;;;0.90;;
76459;SDS011;65299;46.084;18.762;2023-07-13T08:18:43;2.55;;;0.65;;
76459;SDS011;65299;46.084;18.762;2023-07-13T08:21:43;2.17;;;1.10;;
76459;SDS011;65299;46.084;18.762;2023-07-13T08:24:44;3.00;;;1.13;;
76459;SDS011;65299;46.084;18.762;2023-07-13T08:27:44;1.83;;;1.00;;
76459;SDS011;65299;46.084;18.762;2023-07-13T08:30:44;3.17;;;1.30;;
76459;SDS011;65299;46.084;18.762;2023-07-13T08:33:48;2.05;;;0.90;;
76459;SDS011;65299;46.084;18.762;2023-07-13T08:36:49;1.10;;;1.00;;
76459;SDS011;65299;46.084;18.762;2023-07-13T08:39:49;1.10;;;1.00;;
76459;SDS011;65299;46.084;18.762;2023-07-13T08:42:53;2.42;;;1.00;;
76459;SDS011;65299;46.084;18.762;2023-07-13T08:49:32;3.15;;;1.10;;
76459;SDS011;65299;46.084;18.762;2023-07-13T08:52:29;1.73;;;0.82;;
76459;SDS011;65299;46.084;18.762;2023-07-13T08:55:37;1.70;;;1.10;;
76459;SDS011;65299;46.084;18.762;2023-07-13T08:58:39;4.93;;;0.90;;
76459;SDS011;65299;46.084;18.762;2023-07-13T09:04:56;0.75;;;0.63;;
76459;SDS011;65299;46.084;18.762;2023-07-13T09:17:40;1.17;;;0.70;;
76459;SDS011;65299;46.084;18.762;2023-07-13T09:20:48;2.97;;;1.08;;
76459;SDS011;65299;46.084;18.762;2023-07-13T09:24:00;3.83;;;1.20;;
76459;SDS011;65299;46.084;18.762;2023-07-13T09:27:39;2.00;;;0.80;;
76459;SDS011;65299;46.084;18.762;2023-07-13T09:30:47;1.67;;;1.00;;
76459;SDS011;65299;46.084;18.762;2023-07-13T09:33:49;3.87;;;0.90;;
76459;SDS011;65299;46.084;18.762;2023-07-13T09:36:50;2.88;;;0.70;;
76459;SDS011;65299;46.084;18.762;2023-07-13T09:39:51;4.30;;;1.27;;
76459;SDS011;65299;46.084;18.762;2023-07-13T09:42:54;2.38;;;1.05;;
76459;SDS011;65299;46.084;18.762;2023-07-13T09:45:56;3.63;;;1.00;;
76459;SDS011;65299;46.084;18.762;2023-07-13T09:48:57;1.67;;;1.00;;
76459;SDS011;65299;46.084;18.762;2023-07-13T09:51:58;1.27;;;1.10;;
76459;SDS011;65299;46.084;18.762;2023-07-13T09:55:02;4.18;;;0.90;;
76459;SDS011;65299;46.084;18.762;2023-07-13T09:58:03;1.43;;;0.93;;
76459;SDS011;65299;46.084;18.762;2023-07-13T10:01:15;1.50;;;1.02;;
76459;SDS011;65299;46.084;18.762;2023-07-13T10:04:19;4.17;;;1.40;;
76459;SDS011;65299;46.084;18.762;2023-07-13T10:07:22;1.90;;;0.90;;
76459;SDS011;65299;46.084;18.762;2023-07-13T10:10:22;2.20;;;1.15;;
76459;SDS011;65299;46.084;18.762;2023-07-13T10:13:33;2.93;;;1.00;;
76459;SDS011;65299;46.084;18.762;2023-07-13T10:16:36;2.25;;;0.93;;
76459;SDS011;65299;46.084;18.762;2023-07-13T10:19:38;1.33;;;0.98;;
76459;SDS011;65299;46.084;18.762;2023-07-13T10:22:45;3.47;;;1.10;;
76459;SDS011;65299;46.084;18.762;2023-07-13T10:25:50;1.60;;;1.13;;
76459;SDS011;65299;46.084;18.762;2023-07-13T10:28:54;2.10;;;1.15;;
76459;SDS011;65299;46.084;18.762;2023-07-13T10:31:59;5.47;;;1.05;;
76459;SDS011;65299;46.084;18.762;2023-07-13T10:34:59;2.90;;;1.10;;
76459;SDS011;65299;46.084;18.762;2023-07-13T10:38:03;3.08;;;1.48;;
76459;SDS011;65299;46.084;18.762;2023-07-13T10:41:10;3.20;;;1.87;;
76459;SDS011;65299;46.084;18.762;2023-07-13T10:44:18;1.35;;;1.25;;
76459;SDS011;65299;46.084;18.762;2023-07-13T10:47:26;4.50;;;1.17;;
76459;SDS011;65299;46.084;18.762;2023-07-13T10:50:28;5.55;;;1.70;;
76459;SDS011;65299;46.084;18.762;2023-07-13T10:53:34;2.20;;;1.13;;
76459;SDS011;65299;46.084;18.762;2023-07-13T10:56:36;4.17;;;1.10;;
76459;SDS011;65299;46.084;18.762;2023-07-13T10:59:39;2.38;;;1.35;;
76459;SDS011;65299;46.084;18.762;2023-07-13T11:02:41;2.45;;;1.17;;
76459;SDS011;65299;46.084;18.762;2023-07-13T11:05:42;3.83;;;0.95;;
76459;SDS011;65299;46.084;18.762;2023-07-13T11:11:47;2.23;;;1.10;;
76459;SDS011;65299;46.084;18.762;2023-07-13T11:17:54;2.95;;;1.27;;
76459;SDS011;65299;46.084;18.762;2023-07-13T11:21:22;4.05;;;1.20;;
76459;SDS011;65299;46.084;18.762;2023-07-13T11:24:29;4.32;;;1.30;;
76459;SDS011;65299;46.084;18.762;2023-07-13T11:27:51;2.33;;;1.10;;
76459;SDS011;65299;46.084;18.762;2023-07-13T11:31:11;2.25;;;1.15;;
76459;SDS011;65299;46.084;18.762;2023-07-13T11:34:15;2.85;;;1.17;;
76459;SDS011;65299;46.084;18.762;2023-07-13T11:37:27;2.75;;;1.40;;
76459;SDS011;65299;46.084;18.762;2023-07-13T11:40:29;2.40;;;1.20;;
76459;SDS011;65299;46.084;18.762;2023-07-13T11:43:30;2.37;;;1.13;;
76459;SDS011;65299;46.084;18.762;2023-07-13T11:46:33;2.08;;;1.05;;
76459;SDS011;65299;46.084;18.762;2023-07-13T11:49:48;1.17;;;1.07;;
76459;SDS011;65299;46.084;18.762;2023-07-13T11:52:50;2.15;;;1.60;;
76459;SDS011;65299;46.084;18.762;2023-07-13T11:55:53;5.78;;;1.20;;
76459;SDS011;65299;46.084;18.762;2023-07-13T11:58:56;3.72;;;1.55;;
76459;SDS011;65299;46.084;18.762;2023-07-13T12:01:57;2.87;;;1.23;;
76459;SDS011;65299;46.084;18.762;2023-07-13T12:04:59;2.08;;;1.40;;
76459;SDS011;65299;46.084;18.762;2023-07-13T12:08:08;3.28;;;1.55;;
76459;SDS011;65299;46.084;18.762;2023-07-13T12:11:20;5.45;;;1.60;;
76459;SDS011;65299;46.084;18.762;2023-07-13T12:14:22;3.30;;;1.23;;
76459;SDS011;65299;46.084;18.762;2023-07-13T12:17:25;3.40;;;1.63;;
76459;SDS011;65299;46.084;18.762;2023-07-13T12:20:27;1.77;;;1.35;;
76459;SDS011;65299;46.084;18.762;2023-07-13T12:23:34;3.92;;;1.50;;
76459;SDS011;65299;46.084;18.762;2023-07-13T12:26:35;2.83;;;1.42;;
76459;SDS011;65299;46.084;18.762;2023-07-13T12:29:36;2.40;;;1.40;;
76459;SDS011;65299;46.084;18.762;2023-07-13T12:32:37;2.40;;;1.77;;
76459;SDS011;65299;46.084;18.762;2023-07-13T12:35:47;1.50;;;1.30;;
76459;SDS011;65299;46.084;18.762;2023-07-13T12:38:49;1.85;;;1.50;;
76459;SDS011;65299;46.084;18.762;2023-07-13T12:41:51;3.22;;;1.67;;
76459;SDS011;65299;46.084;18.762;2023-07-13T12:45:00;2.30;;;1.40;;
76459;SDS011;65299;46.084;18.762;2023-07-13T12:48:04;3.42;;;1.75;;
76459;SDS011;65299;46.084;18.762;2023-07-13T12:51:12;2.38;;;1.70;;
76459;SDS011;65299;46.084;18.762;2023-07-13T12:54:17;4.93;;;1.70;;
76459;SDS011;65299;46.084;18.762;2023-07-13T12:57:19;5.78;;;1.65;;
76459;SDS011;65299;46.084;18.762;2023-07-13T13:00:21;3.53;;;1.60;;
76459;SDS011;65299;46.084;18.762;2023-07-13T13:03:35;1.83;;;1.58;;
76459;SDS011;65299;46.084;18.762;2023-07-13T13:06:37;4.13;;;1.60;;
76459;SDS011;65299;46.084;18.762;2023-07-13T13:09:40;2.28;;;1.33;;
76459;SDS011;65299;46.084;18.762;2023-07-13T13:12:40;3.07;;;1.80;;
76459;SDS011;65299;46.084;18.762;2023-07-13T13:15:42;2.75;;;1.80;;
76459;SDS011;65299;46.084;18.762;2023-07-13T13:18:42;2.97;;;1.40;;
76459;SDS011;65299;46.084;18.762;2023-07-13T13:21:43;3.25;;;1.60;;
76459;SDS011;65299;46.084;18.762;2023-07-13T13:24:45;5.23;;;1.40;;
76459;SDS011;65299;46.084;18.762;2023-07-13T13:27:45;3.85;;;1.98;;
76459;SDS011;65299;46.084;18.762;2023-07-13T13:30:47;1.43;;;1.30;;
76459;SDS011;65299;46.084;18.762;2023-07-13T13:33:49;3.47;;;1.70;;
76459;SDS011;65299;46.084;18.762;2023-07-13T13:36:50;3.08;;;1.70;;
76459;SDS011;65299;46.084;18.762;2023-07-13T13:39:52;2.25;;;1.55;;
76459;SDS011;65299;46.084;18.762;2023-07-13T13:42:53;2.73;;;1.63;;
76459;SDS011;65299;46.084;18.762;2023-07-13T13:45:56;2.60;;;1.50;;
76459;SDS011;65299;46.084;18.762;2023-07-13T13:48:59;2.63;;;1.70;;
76459;SDS011;65299;46.084;18.762;2023-07-13T13:52:00;3.63;;;1.70;;
76459;SDS011;65299;46.084;18.762;2023-07-13T13:55:00;3.00;;;1.90;;
76459;SDS011;65299;46.084;18.762;2023-07-13T13:58:01;1.67;;;1.47;;
76459;SDS011;65299;46.084;18.762;2023-07-13T14:01:01;3.07;;;1.43;;
76459;SDS011;65299;46.084;18.762;2023-07-13T14:04:02;2.90;;;1.50;;
76459;SDS011;65299;46.084;18.762;2023-07-13T14:07:02;2.17;;;1.40;;
76459;SDS011;65299;46.084;18.762;2023-07-13T14:10:10;3.10;;;1.67;;
76459;SDS011;65299;46.084;18.762;2023-07-13T14:13:19;3.80;;;2.00;;
76459;SDS011;65299;46.084;18.762;2023-07-13T14:16:25;3.05;;;1.80;;
76459;SDS011;65299;46.084;18.762;2023-07-13T14:19:29;2.85;;;1.58;;
76459;SDS011;65299;46.084;18.762;2023-07-13T14:22:30;9.33;;;1.87;;
76459;SDS011;65299;46.084;18.762;2023-07-13T14:25:30;3.57;;;1.63;;
76459;SDS011;65299;46.084;18.762;2023-07-13T14:28:31;4.23;;;1.40;;
76459;SDS011;65299;46.084;18.762;2023-07-13T14:31:32;3.25;;;1.80;;
76459;SDS011;65299;46.084;18.762;2023-07-13T14:34:32;5.23;;;1.80;;
76459;SDS011;65299;46.084;18.762;2023-07-13T14:37:32;6.05;;;1.40;;
76459;SDS011;65299;46.084;18.762;2023-07-13T14:40:34;3.50;;;1.90;;
76459;SDS011;65299;46.084;18.762;2023-07-13T14:43:35;2.50;;;1.70;;
76459;SDS011;65299;46.084;18.762;2023-07-13T14:46:35;3.63;;;1.63;;
76459;SDS011;65299;46.084;18.762;2023-07-13T14:49:37;3.30;;;1.90;;
76459;SDS011;65299;46.084;18.762;2023-07-13T14:52:40;3.30;;;1.80;;
76459;SDS011;65299;46.084;18.762;2023-07-13T14:55:40;2.67;;;1.48;;
76459;SDS011;65299;46.084;18.762;2023-07-13T14:58:42;3.37;;;1.73;;
76459;SDS011;65299;46.084;18.762;2023-07-13T15:01:42;5.97;;;1.75;;
76459;SDS011;65299;46.084;18.762;2023-07-13T15:04:43;2.40;;;1.57;;
76459;SDS011;65299;46.084;18.762;2023-07-13T15:07:44;3.30;;;1.40;;
76459;SDS011;65299;46.084;18.762;2023-07-13T15:10:45;5.73;;;1.43;;
76459;SDS011;65299;46.084;18.762;2023-07-13T15:13:45;2.03;;;1.40;;
76459;SDS011;65299;46.084;18.762;2023-07-13T15:16:46;3.88;;;1.40;;
76459;SDS011;65299;46.084;18.762;2023-07-13T15:19:49;2.53;;;1.53;;
76459;SDS011;65299;46.084;18.762;2023-07-13T15:22:49;2.67;;;1.20;;
76459;SDS011;65299;46.084;18.762;2023-07-13T15:25:50;3.00;;;1.40;;
76459;SDS011;65299;46.084;18.762;2023-07-13T15:28:51;3.00;;;1.30;;
76459;SDS011;65299;46.084;18.762;2023-07-13T15:31:51;2.20;;;1.30;;
76459;SDS011;65299;46.084;18.762;2023-07-13T15:34:52;6.77;;;1.30;;
76459;SDS011;65299;46.084;18.762;2023-07-13T15:37:52;2.58;;;1.17;;
76459;SDS011;65299;46.084;18.762;2023-07-13T15:40:53;1.50;;;1.10;;
76459;SDS011;65299;46.084;18.762;2023-07-13T15:43:56;1.83;;;0.98;;
76459;SDS011;65299;46.084;18.762;2023-07-13T15:47:00;3.92;;;1.27;;
76459;SDS011;65299;46.084;18.762;2023-07-13T15:50:03;2.47;;;1.20;;
76459;SDS011;65299;46.084;18.762;2023-07-13T15:53:03;2.47;;;1.50;;
76459;SDS011;65299;46.084;18.762;2023-07-13T15:56:23;2.87;;;1.20;;
76459;SDS011;65299;46.084;18.762;2023-07-13T15:59:26;1.95;;;1.30;;
76459;SDS011;65299;46.084;18.762;2023-07-13T16:02:26;3.57;;;1.50;;
76459;SDS011;65299;46.084;18.762;2023-07-13T16:05:27;5.43;;;1.17;;
76459;SDS011;65299;46.084;18.762;2023-07-13T16:08:29;3.10;;;1.37;;
76459;SDS011;65299;46.084;18.762;2023-07-13T16:11:33;1.92;;;1.20;;
76459;SDS011;65299;46.084;18.762;2023-07-13T16:14:35;3.55;;;1.23;;
76459;SDS011;65299;46.084;18.762;2023-07-13T16:17:36;3.63;;;1.42;;
76459;SDS011;65299;46.084;18.762;2023-07-13T16:20:36;1.87;;;1.27;;
76459;SDS011;65299;46.084;18.762;2023-07-13T16:23:37;2.47;;;1.43;;
76459;SDS011;65299;46.084;18.762;2023-07-13T16:26:38;6.05;;;1.50;;
76459;SDS011;65299;46.084;18.762;2023-07-13T16:29:42;3.50;;;1.30;;
76459;SDS011;65299;46.084;18.762;2023-07-13T16:32:42;1.43;;;1.20;;
76459;SDS011;65299;46.084;18.762;2023-07-13T16:35:42;2.57;;;1.17;;
76459;SDS011;65299;46.084;18.762;2023-07-13T16:38:43;2.13;;;1.20;;
76459;SDS011;65299;46.084;18.762;2023-07-13T16:41:43;4.30;;;1.40;;
76459;SDS011;65299;46.084;18.762;2023-07-13T16:44:44;1.93;;;0.80;;
76459;SDS011;65299;46.084;18.762;2023-07-13T16:47:44;5.03;;;1.25;;
76459;SDS011;65299;46.084;18.762;2023-07-13T16:50:52;4.20;;;1.10;;
76459;SDS011;65299;46.084;18.762;2023-07-13T16:53:55;7.95;;;1.30;;
76459;SDS011;65299;46.084;18.762;2023-07-13T16:56:56;3.80;;;1.37;;
76459;SDS011;65299;46.084;18.762;2023-07-13T16:59:59;2.13;;;0.90;;
76459;SDS011;65299;46.084;18.762;2023-07-13T17:03:01;2.40;;;1.20;;
76459;SDS011;65299;46.084;18.762;2023-07-13T17:06:27;3.45;;;0.82;;
76459;SDS011;65299;46.084;18.762;2023-07-13T17:09:29;2.15;;;0.95;;
76459;SDS011;65299;46.084;18.762;2023-07-13T17:12:30;2.53;;;0.77;;
76459;SDS011;65299;46.084;18.762;2023-07-13T17:15:31;3.67;;;0.70;;
76459;SDS011;65299;46.084;18.762;2023-07-13T17:18:32;2.85;;;1.30;;
76459;SDS011;65299;46.084;18.762;2023-07-13T17:21:36;2.20;;;1.00;;
76459;SDS011;65299;46.084;18.762;2023-07-13T17:24:36;1.40;;;0.90;;
76459;SDS011;65299;46.084;18.762;2023-07-13T17:27:36;2.20;;;1.17;;
76459;SDS011;65299;46.084;18.762;2023-07-13T17:30:38;3.73;;;1.10;;
76459;SDS011;65299;46.084;18.762;2023-07-13T17:33:41;1.20;;;1.00;;
76459;SDS011;65299;46.084;18.762;2023-07-13T17:36:42;3.08;;;0.90;;
76459;SDS011;65299;46.084;18.762;2023-07-13T17:39:43;1.83;;;1.20;;
76459;SDS011;65299;46.084;18.762;2023-07-13T17:42:44;2.50;;;1.15;;
76459;SDS011;65299;46.084;18.762;2023-07-13T17:45:45;2.90;;;1.17;;
76459;SDS011;65299;46.084;18.762;2023-07-13T17:48:46;1.98;;;1.00;;
76459;SDS011;65299;46.084;18.762;2023-07-13T17:51:49;2.03;;;1.10;;
76459;SDS011;65299;46.084;18.762;2023-07-13T17:54:50;1.98;;;1.00;;
76459;SDS011;65299;46.084;18.762;2023-07-13T17:57:50;3.37;;;0.60;;
76459;SDS011;65299;46.084;18.762;2023-07-13T18:00:51;4.13;;;0.90;;
76459;SDS011;65299;46.084;18.762;2023-07-13T18:03:51;2.57;;;0.97;;
76459;SDS011;65299;46.084;18.762;2023-07-13T18:06:57;4.88;;;1.10;;
76459;SDS011;65299;46.084;18.762;2023-07-13T18:10:12;3.10;;;0.80;;
76459;SDS011;65299;46.084;18.762;2023-07-13T18:13:13;3.67;;;1.08;;
76459;SDS011;65299;46.084;18.762;2023-07-13T18:16:15;2.25;;;1.08;;
76459;SDS011;65299;46.084;18.762;2023-07-13T18:19:35;2.88;;;0.85;;